createdAt,value
2023-10-29T00:00:47.622Z,99.90
2023-10-29T00:03:15.810Z,99.90
2023-10-29T00:05:43.962Z,99.90
2023-10-29T00:08:12.936Z,99.90
2023-10-29T00:10:42.327Z,99.90
2023-10-29T00:13:10.667Z,99.90
2023-10-29T00:15:38.768Z,99.90
2023-10-29T00:18:09.973Z,99.90
2023-10-29T00:20:38.154Z,99.90
2023-10-29T00:23:06.212Z,99.90
2023-10-29T00:25:34.369Z,99.90
2023-10-29T00:28:03.844Z,99.90
2023-10-29T00:30:31.874Z,99.90
2023-10-29T00:32:59.956Z,99.90
2023-10-29T00:35:28.076Z,99.90
2023-10-29T00:37:56.246Z,99.90
2023-10-29T00:40:24.255Z,99.90
2023-10-29T00:42:52.296Z,99.90
2023-10-29T00:45:21.650Z,99.90
2023-10-29T00:47:49.735Z,99.90
2023-10-29T00:50:18.176Z,99.90
2023-10-29T00:52:46.295Z,99.90
2023-10-29T00:55:14.857Z,99.90
2023-10-29T00:57:43.511Z,99.90
2023-10-29T01:00:12.777Z,99.90
2023-10-29T01:02:42.396Z,99.90
2023-10-29T01:05:10.714Z,99.90
2023-10-29T01:07:38.796Z,99.90
2023-10-29T01:10:08.073Z,99.90
2023-10-29T01:12:36.106Z,99.90
2023-10-29T01:15:04.451Z,99.90
2023-10-29T01:17:32.693Z,99.90
2023-10-29T01:20:04.939Z,99.90
2023-10-29T01:22:34.355Z,99.90
2023-10-29T01:25:03.826Z,99.90
2023-10-29T01:27:31.984Z,99.90
2023-10-29T01:30:00.042Z,99.90
2023-10-29T01:32:28.184Z,99.90
2023-10-29T01:34:56.257Z,99.90
2023-10-29T01:37:25.716Z,99.90
2023-10-29T01:39:53.713Z,99.90
2023-10-29T01:42:22.233Z,99.90
2023-10-29T01:44:50.575Z,99.90
2023-10-29T01:47:18.903Z,99.90
2023-10-29T01:49:46.880Z,99.90
2023-10-29T01:52:15.049Z,99.90
2023-10-29T01:54:45.017Z,99.90
2023-10-29T01:57:13.363Z,99.90
2023-10-29T01:59:41.392Z,99.90
2023-10-29T02:02:10.846Z,99.90
2023-10-29T02:04:38.844Z,99.90
2023-10-29T02:07:06.833Z,99.90
2023-10-29T02:09:34.816Z,99.90
2023-10-29T02:12:04.421Z,99.90
2023-10-29T02:14:33.716Z,99.90
2023-10-29T02:17:01.919Z,99.90
2023-10-29T02:19:29.976Z,99.90
2023-10-29T02:21:59.375Z,99.90
2023-10-29T02:24:27.478Z,99.90
2023-10-29T02:26:55.533Z,99.90
2023-10-29T02:29:22.587Z,99.90
2023-10-29T02:31:50.632Z,99.90
2023-10-29T02:34:18.649Z,99.90
2023-10-29T02:36:46.668Z,99.90
2023-10-29T02:39:16.046Z,99.90
2023-10-29T02:41:44.071Z,99.90
2023-10-29T02:44:12.087Z,99.90
2023-10-29T02:46:40.082Z,99.90
2023-10-29T02:49:08.094Z,99.90
2023-10-29T02:51:36.184Z,99.90
2023-10-29T02:54:04.652Z,99.90
2023-10-29T02:56:34.211Z,99.90
2023-10-29T02:59:02.211Z,99.90
2023-10-29T03:01:30.399Z,99.90
2023-10-29T03:03:58.546Z,99.90
2023-10-29T03:06:26.671Z,99.90
2023-10-29T03:08:54.722Z,99.90
2023-10-29T03:11:22.716Z,99.90
2023-10-29T03:13:52.045Z,99.90
2023-10-29T03:16:20.087Z,99.90
2023-10-29T03:18:49.241Z,99.90
2023-10-29T03:21:18.353Z,99.90
2023-10-29T03:23:46.397Z,99.90
2023-10-29T03:26:14.429Z,99.90
2023-10-29T03:28:42.854Z,99.90
2023-10-29T03:31:16.683Z,99.90
2023-10-29T03:33:44.896Z,99.90
2023-10-29T03:36:14.026Z,99.90
2023-10-29T03:38:42.030Z,99.90
2023-10-29T03:41:20.394Z,99.90
2023-10-29T03:43:48.408Z,99.90
2023-10-29T03:46:18.375Z,99.90
2023-10-29T03:48:47.020Z,99.90
2023-10-29T03:51:15.311Z,99.90
2023-10-29T03:53:43.396Z,99.90
2023-10-29T03:56:11.438Z,99.90
2023-10-29T03:58:39.413Z,99.90
2023-10-29T04:01:07.584Z,99.90
2023-10-29T04:03:37.191Z,99.90
2023-10-29T04:06:11.152Z,99.90
2023-10-29T04:08:39.608Z,99.90
2023-10-29T04:11:07.719Z,99.90
2023-10-29T04:13:35.766Z,99.90
2023-10-29T04:16:03.857Z,99.90
2023-10-29T04:18:33.133Z,99.90
2023-10-29T04:21:03.785Z,99.90
2023-10-29T04:23:31.874Z,99.90
2023-10-29T04:25:59.969Z,99.90
2023-10-29T04:28:28.090Z,99.90
2023-10-29T04:30:57.088Z,99.90
2023-10-29T04:33:25.438Z,99.90
2023-10-29T04:35:53.591Z,99.90
2023-10-29T04:38:22.999Z,99.90
2023-10-29T04:40:51.941Z,99.90
2023-10-29T04:43:20.030Z,99.90
2023-10-29T04:45:48.113Z,99.90
2023-10-29T04:48:17.455Z,99.90
2023-10-29T04:50:45.751Z,99.90
2023-10-29T04:53:13.816Z,99.90
2023-10-29T04:55:43.306Z,99.90
2023-10-29T04:58:11.460Z,99.90
2023-10-29T05:00:39.461Z,99.90
2023-10-29T05:03:07.563Z,99.90
2023-10-29T05:05:36.064Z,99.90
2023-10-29T05:08:04.063Z,99.90
2023-10-29T05:10:32.048Z,99.90
2023-10-29T05:13:02.159Z,99.90
2023-10-29T05:15:30.977Z,99.90
2023-10-29T05:17:59.084Z,99.90
2023-10-29T05:20:27.142Z,99.90
2023-10-29T05:22:55.146Z,99.90
2023-10-29T05:25:23.118Z,99.90
2023-10-29T05:27:54.787Z,99.90
2023-10-29T05:30:24.627Z,99.90
2023-10-29T05:32:52.822Z,99.90
2023-10-29T05:35:22.248Z,99.90
2023-10-29T05:37:50.226Z,99.90
2023-10-29T05:40:18.351Z,99.90
2023-10-29T05:42:46.374Z,99.90
2023-10-29T05:45:14.432Z,99.90
2023-10-29T05:47:43.890Z,99.90
2023-10-29T05:50:12.285Z,99.90
2023-10-29T05:52:40.883Z,99.90
2023-10-29T05:55:09.094Z,99.90
2023-10-29T05:57:37.083Z,99.90
2023-10-29T06:00:05.854Z,99.90
2023-10-29T06:02:34.466Z,99.90
2023-10-29T06:05:03.992Z,99.90
2023-10-29T06:07:32.057Z,99.90
2023-10-29T06:10:00.161Z,99.90
2023-10-29T06:12:28.168Z,99.90
2023-10-29T06:14:56.214Z,99.90
2023-10-29T06:17:27.312Z,99.90
2023-10-29T06:19:55.589Z,99.90
2023-10-29T06:22:24.995Z,99.90
2023-10-29T06:24:53.000Z,99.90
2023-10-29T06:27:21.008Z,99.90
2023-10-29T06:29:49.107Z,99.90
2023-10-29T06:32:17.368Z,99.90
2023-10-29T06:34:45.370Z,99.90
2023-10-29T06:37:13.422Z,99.90
2023-10-29T06:39:42.817Z,99.90
2023-10-29T06:42:10.990Z,99.90
2023-10-29T06:44:39.124Z,99.90
2023-10-29T06:47:08.565Z,99.90
2023-10-29T06:49:36.558Z,99.90
2023-10-29T06:52:04.939Z,99.90
2023-10-29T06:54:33.206Z,99.90
2023-10-29T06:57:05.054Z,99.90
2023-10-29T06:59:34.565Z,99.90
2023-10-29T07:02:02.978Z,99.90
2023-10-29T07:04:31.199Z,99.90
2023-10-29T07:06:59.489Z,99.90
2023-10-29T07:09:27.665Z,99.90
2023-10-29T07:11:57.264Z,99.90
2023-10-29T07:14:26.824Z,99.90
2023-10-29T07:16:54.857Z,99.90
2023-10-29T07:19:23.073Z,99.90
2023-10-29T07:21:51.338Z,99.90
2023-10-29T07:24:19.394Z,99.90
2023-10-29T07:26:47.427Z,99.90
2023-10-29T07:29:15.417Z,99.90
2023-10-29T07:31:44.875Z,99.90
2023-10-29T07:34:12.922Z,99.90
2023-10-29T07:36:40.971Z,99.90
2023-10-29T07:39:09.034Z,99.90
2023-10-29T07:41:37.153Z,99.90
2023-10-29T07:44:05.523Z,99.90
2023-10-29T07:46:33.631Z,99.90
2023-10-29T07:49:04.064Z,99.90
2023-10-29T07:51:32.048Z,99.90
2023-10-29T07:54:01.091Z,99.90
2023-10-29T07:56:29.536Z,99.90
2023-10-29T07:58:57.512Z,99.90
2023-10-29T08:01:25.629Z,99.90
2023-10-29T08:03:57.023Z,99.90
2023-10-29T08:06:26.738Z,99.90
2023-10-29T08:08:55.156Z,99.90
2023-10-29T08:11:23.809Z,99.90
2023-10-29T08:13:52.398Z,99.90
2023-10-29T08:16:20.990Z,99.90
2023-10-29T08:18:49.131Z,99.90
2023-10-29T08:21:18.524Z,99.90
2023-10-29T08:23:48.556Z,99.90
2023-10-29T08:26:17.436Z,99.90
2023-10-29T08:28:46.123Z,99.90
2023-10-29T08:31:14.149Z,99.90
2023-10-29T08:33:43.077Z,99.90
2023-10-29T08:36:11.218Z,99.90
2023-10-29T08:38:39.303Z,99.90
2023-10-29T08:41:16.224Z,99.90
2023-10-29T08:43:45.518Z,99.90
2023-10-29T08:46:13.765Z,99.90
2023-10-29T08:48:42.041Z,99.90
2023-10-29T08:51:10.355Z,99.90
2023-10-29T08:53:38.396Z,99.90
2023-10-29T08:56:07.230Z,99.90
2023-10-29T08:58:36.680Z,99.90
2023-10-29T09:01:08.747Z,99.90
2023-10-29T09:03:37.606Z,99.90
2023-10-29T09:06:07.135Z,99.90
2023-10-29T09:08:35.795Z,99.90
2023-10-29T09:11:03.946Z,99.90
2023-10-29T09:13:32.241Z,99.90
2023-10-29T09:16:01.684Z,99.90
2023-10-29T09:18:30.058Z,99.90
2023-10-29T09:20:58.363Z,99.90
2023-10-29T09:23:28.316Z,99.90
2023-10-29T09:25:56.335Z,99.90
2023-10-29T09:28:24.318Z,99.90
2023-10-29T09:30:53.057Z,99.90
2023-10-29T09:33:22.647Z,99.90
2023-10-29T09:35:50.731Z,99.90
2023-10-29T09:38:21.418Z,99.90
2023-10-29T09:40:54.316Z,99.90
2023-10-29T09:43:28.318Z,99.90
2023-10-29T09:45:57.678Z,99.90
2023-10-29T09:48:28.004Z,99.90
2023-10-29T09:50:56.656Z,99.90
2023-10-29T09:53:26.107Z,99.90
2023-10-29T09:55:56.192Z,99.90
2023-10-29T09:58:25.197Z,99.90
2023-10-29T10:00:53.566Z,99.90
2023-10-29T10:03:21.974Z,99.90
2023-10-29T10:05:52.032Z,99.90
2023-10-29T10:08:25.840Z,99.90
2023-10-29T10:10:54.482Z,99.90
2023-10-29T10:13:38.141Z,99.90
2023-10-29T10:16:11.617Z,99.90
2023-10-29T10:18:51.560Z,99.90
2023-10-29T10:21:21.946Z,99.90
2023-10-29T10:23:52.119Z,99.90
2023-10-29T10:26:29.375Z,99.90
2023-10-29T10:28:58.430Z,99.90
2023-10-29T10:31:28.512Z,99.90
2023-10-29T10:34:12.002Z,99.90
2023-10-29T10:36:41.948Z,99.90
2023-10-29T10:39:12.195Z,99.90
2023-10-29T10:41:43.319Z,99.90
2023-10-29T10:44:12.751Z,99.90
2023-10-29T10:46:48.665Z,99.90
2023-10-29T10:49:17.164Z,99.90
2023-10-29T10:51:48.562Z,99.90
2023-10-29T10:54:19.900Z,99.90
2023-10-29T10:56:48.835Z,99.90
2023-10-29T10:59:17.397Z,99.90
2023-10-29T11:01:45.858Z,99.90
2023-10-29T11:04:14.520Z,99.90
2023-10-29T11:06:44.202Z,99.90
2023-10-29T11:09:15.449Z,99.90
2023-10-29T11:11:48.082Z,99.90
2023-10-29T11:14:17.301Z,99.90
2023-10-29T11:16:50.612Z,99.90
2023-10-29T11:19:40.797Z,99.90
2023-10-29T11:22:20.182Z,99.90
2023-10-29T11:25:21.402Z,99.90
2023-10-29T11:27:50.811Z,99.90
2023-10-29T11:30:22.024Z,99.90
2023-10-29T11:33:18.919Z,99.90
2023-10-29T11:35:48.153Z,99.90
2023-10-29T11:38:31.190Z,99.90
2023-10-29T11:40:59.987Z,99.90
2023-10-29T11:43:29.703Z,99.90
2023-10-29T11:46:01.914Z,99.90
2023-10-29T11:48:32.608Z,89.60
2023-10-29T11:51:22.859Z,63.10
2023-10-29T11:53:51.036Z,49.40
2023-10-29T11:56:20.453Z,43.10
2023-10-29T11:59:06.013Z,38.30
2023-10-29T12:01:34.372Z,36.00
2023-10-29T12:04:02.546Z,35.50
2023-10-29T12:06:44.297Z,33.10
2023-10-29T12:09:19.873Z,34.50
2023-10-29T12:11:50.144Z,36.70
2023-10-29T12:14:40.640Z,36.60
2023-10-29T12:17:08.830Z,36.10
2023-10-29T12:19:37.425Z,37.50
2023-10-29T12:22:15.681Z,39.00
2023-10-29T12:24:44.212Z,39.80
2023-10-29T12:27:12.840Z,43.40
2023-10-29T12:29:42.445Z,56.00
2023-10-29T12:32:18.410Z,70.90
2023-10-29T12:34:50.847Z,94.10
2023-10-29T12:37:25.879Z,99.40
2023-10-29T12:39:57.024Z,99.90
2023-10-29T12:42:45.287Z,99.90
2023-10-29T12:45:24.592Z,99.90
2023-10-29T12:48:09.755Z,99.90
2023-10-29T12:50:51.918Z,97.40
2023-10-29T12:53:24.435Z,90.50
2023-10-29T12:55:52.548Z,77.20
2023-10-29T12:58:20.691Z,81.40
2023-10-29T13:00:51.690Z,80.50
2023-10-29T13:03:21.211Z,73.40
2023-10-29T13:05:49.523Z,59.00
2023-10-29T13:08:18.399Z,54.60
2023-10-29T13:10:47.529Z,53.40
2023-10-29T13:13:16.644Z,49.10
2023-10-29T13:15:44.730Z,45.70
2023-10-29T13:18:15.487Z,46.90
2023-10-29T13:20:43.553Z,48.80
2023-10-29T13:23:11.600Z,60.80
2023-10-29T13:25:39.614Z,83.30
2023-10-29T13:28:07.649Z,99.40
2023-10-29T13:30:37.721Z,99.90
2023-10-29T13:33:05.998Z,99.90
2023-10-29T13:35:40.184Z,99.90
2023-10-29T13:38:09.474Z,99.90
2023-10-29T13:40:39.224Z,99.90
2023-10-29T13:43:07.374Z,99.90
2023-10-29T13:45:35.555Z,99.90
2023-10-29T13:48:05.650Z,99.90
2023-10-29T13:50:37.851Z,99.90
2023-10-29T13:53:06.030Z,99.90
2023-10-29T13:55:34.399Z,99.90
2023-10-29T13:58:03.666Z,99.90
2023-10-29T14:00:32.287Z,99.90
2023-10-29T14:03:00.574Z,99.90
2023-10-29T14:05:29.464Z,99.90
2023-10-29T14:08:00.528Z,99.90
2023-10-29T14:10:28.564Z,99.90
2023-10-29T14:12:56.649Z,99.90
2023-10-29T14:15:24.702Z,99.90
2023-10-29T14:17:54.419Z,99.90
2023-10-29T14:20:23.128Z,99.90
2023-10-29T14:22:51.452Z,99.90
2023-10-29T14:25:20.992Z,99.90
2023-10-29T14:27:49.036Z,99.90
2023-10-29T14:30:17.285Z,99.90
2023-10-29T14:32:45.491Z,99.90
2023-10-29T14:35:13.952Z,99.90
2023-10-29T14:37:42.008Z,99.90
2023-10-29T14:40:10.826Z,99.90
2023-10-29T14:42:40.313Z,99.90
2023-10-29T14:45:10.551Z,99.90
2023-10-29T14:47:38.676Z,99.90
2023-10-29T14:50:09.910Z,99.90
2023-10-29T14:52:39.142Z,99.90
2023-10-29T14:55:08.273Z,99.90
2023-10-29T14:57:36.558Z,99.90
2023-10-29T15:00:08.456Z,99.90
2023-10-29T15:02:36.554Z,99.90
2023-10-29T15:05:06.097Z,99.90
2023-10-29T15:07:34.438Z,99.90
2023-10-29T15:10:02.700Z,99.90
2023-10-29T15:12:30.826Z,99.90
2023-10-29T15:14:59.340Z,99.90
2023-10-29T15:17:28.787Z,99.90
2023-10-29T15:19:58.984Z,99.90
2023-10-29T15:22:28.298Z,99.90
2023-10-29T15:24:56.333Z,99.90
2023-10-29T15:27:25.518Z,99.90
2023-10-29T15:29:53.696Z,99.90
2023-10-29T15:32:21.749Z,99.90
2023-10-29T15:34:51.165Z,99.90
2023-10-29T15:37:19.553Z,99.90
2023-10-29T15:39:47.687Z,99.90
2023-10-29T15:42:15.784Z,99.90
2023-10-29T15:44:43.893Z,99.90
2023-10-29T15:47:11.912Z,99.90
2023-10-29T15:49:39.990Z,99.90
2023-10-29T15:52:09.587Z,99.90
2023-10-29T15:54:37.623Z,99.90
2023-10-29T15:57:06.215Z,99.90
2023-10-29T15:59:34.250Z,99.90
2023-10-29T16:02:02.482Z,99.90
2023-10-29T16:04:30.481Z,99.90
2023-10-29T16:06:58.509Z,99.90
2023-10-29T16:09:27.960Z,99.90
2023-10-29T16:11:56.107Z,99.90
2023-10-29T16:14:25.390Z,99.90
2023-10-29T16:16:53.408Z,99.90
2023-10-29T16:19:21.420Z,99.90
2023-10-29T16:21:49.721Z,99.90
2023-10-29T16:24:18.719Z,99.90
2023-10-29T16:26:49.236Z,99.90
2023-10-29T16:29:18.511Z,99.90
2023-10-29T16:31:46.637Z,99.90
2023-10-29T16:34:14.793Z,99.90
2023-10-29T16:36:42.949Z,99.90
2023-10-29T16:39:11.090Z,99.90
2023-10-29T16:41:39.203Z,99.90
2023-10-29T16:44:08.638Z,99.90
2023-10-29T16:46:36.665Z,99.90
2023-10-29T16:49:05.458Z,99.90
2023-10-29T16:51:33.473Z,99.90
2023-10-29T16:54:01.578Z,99.90
2023-10-29T16:56:29.645Z,99.90
2023-10-29T16:58:59.299Z,99.90
2023-10-29T17:01:28.777Z,99.90
2023-10-29T17:03:56.904Z,99.90
2023-10-29T17:06:25.195Z,99.90
2023-10-29T17:08:53.228Z,99.90
2023-10-29T17:11:21.278Z,99.90
2023-10-29T17:13:50.288Z,99.90
2023-10-29T17:16:18.893Z,99.90
2023-10-29T17:18:48.736Z,99.90
2023-10-29T17:21:17.795Z,99.90
2023-10-29T17:23:46.783Z,99.90
2023-10-29T17:26:15.649Z,99.90
2023-10-29T17:28:43.803Z,99.90
2023-10-29T17:31:13.426Z,99.90
2023-10-29T17:33:42.519Z,99.90
2023-10-29T17:36:12.810Z,99.90
2023-10-29T17:38:41.471Z,99.90
2023-10-29T17:41:15.834Z,99.90
2023-10-29T17:43:44.502Z,99.90
2023-10-29T17:46:15.753Z,99.90
2023-10-29T17:48:44.533Z,99.90
2023-10-29T17:51:14.138Z,99.90
2023-10-29T17:53:45.549Z,99.90
2023-10-29T17:56:13.730Z,99.90
2023-10-29T17:58:42.254Z,99.90
2023-10-29T18:01:10.612Z,99.90
2023-10-29T18:03:39.013Z,99.90
2023-10-29T18:06:18.407Z,99.90
2023-10-29T18:08:48.965Z,99.90
2023-10-29T18:13:50.462Z,99.90
2023-10-29T18:16:20.640Z,99.90
2023-10-29T18:18:51.306Z,99.90
2023-10-29T18:21:20.616Z,99.90
2023-10-29T18:23:48.682Z,99.90
2023-10-29T18:26:16.629Z,99.90
2023-10-29T18:28:44.566Z,99.90
2023-10-29T18:31:14.765Z,99.90
2023-10-29T18:33:42.777Z,99.90
2023-10-29T18:36:11.772Z,99.90
2023-10-29T18:38:41.188Z,99.90
2023-10-29T18:41:12.267Z,99.90
2023-10-29T18:43:40.458Z,99.90
2023-10-29T18:46:11.560Z,99.90
2023-10-29T18:48:39.633Z,99.90
2023-10-29T18:51:07.692Z,99.90
2023-10-29T18:53:35.664Z,99.90
2023-10-29T18:56:06.696Z,99.90
2023-10-29T18:58:34.665Z,99.90
2023-10-29T19:01:12.236Z,99.90
2023-10-29T19:03:41.244Z,99.90
2023-10-29T19:06:10.259Z,99.90
2023-10-29T19:08:38.565Z,99.90
2023-10-29T19:11:07.940Z,99.90
2023-10-29T19:13:36.060Z,99.90
2023-10-29T19:16:06.016Z,99.90
2023-10-29T19:18:35.032Z,99.90
2023-10-29T19:21:03.410Z,99.90
2023-10-29T19:23:32.759Z,99.90
2023-10-29T19:26:03.230Z,99.90
2023-10-29T19:28:32.517Z,99.90
2023-10-29T19:31:21.548Z,99.90
2023-10-29T19:33:49.624Z,99.90
2023-10-29T19:36:17.914Z,99.90
2023-10-29T19:38:45.923Z,99.90
2023-10-29T19:41:13.887Z,99.90
2023-10-29T19:43:43.279Z,99.90
2023-10-29T19:46:11.534Z,99.90
2023-10-29T19:48:39.573Z,99.90
2023-10-29T19:51:08.943Z,99.90
2023-10-29T19:53:37.924Z,99.90
2023-10-29T19:56:08.203Z,99.90
2023-10-29T19:58:36.403Z,99.90
2023-10-29T20:01:07.652Z,99.90
2023-10-29T20:03:36.208Z,99.90
2023-10-29T20:06:08.906Z,99.90
2023-10-29T20:08:36.942Z,99.90
2023-10-29T20:11:09.325Z,99.90
2023-10-29T20:13:37.803Z,99.90
2023-10-29T20:16:08.008Z,99.90
2023-10-29T20:18:36.584Z,99.90
2023-10-29T20:21:05.288Z,99.90
2023-10-29T20:23:33.534Z,99.90
2023-10-29T20:26:04.264Z,99.90
2023-10-29T20:28:32.288Z,99.90
2023-10-29T20:31:00.278Z,99.90
2023-10-29T20:33:29.604Z,99.90
2023-10-29T20:35:58.003Z,99.90
2023-10-29T20:38:27.005Z,99.90
2023-10-29T20:40:54.967Z,99.90
2023-10-29T20:43:23.058Z,99.90
2023-10-29T20:45:53.734Z,99.90
2023-10-29T20:48:22.597Z,99.90
2023-10-29T20:50:55.293Z,99.90
2023-10-29T20:53:24.722Z,99.90
2023-10-29T20:55:54.057Z,99.90
2023-10-29T20:58:22.009Z,99.90
2023-10-29T21:00:52.404Z,99.90
2023-10-29T21:03:20.677Z,99.90
2023-10-29T21:05:56.556Z,99.90
2023-10-29T21:08:26.423Z,99.90
2023-10-29T21:11:01.617Z,99.90
2023-10-29T21:13:29.562Z,99.90
2023-10-29T21:16:00.992Z,99.90
2023-10-29T21:18:30.347Z,99.90
2023-10-29T21:20:58.565Z,99.90
2023-10-29T21:23:32.557Z,99.90
2023-10-29T21:26:00.729Z,99.90
2023-10-29T21:28:29.104Z,99.90
2023-10-29T21:30:57.249Z,99.90
2023-10-29T21:33:25.249Z,99.90
2023-10-29T21:35:53.174Z,99.90
2023-10-29T21:38:21.144Z,99.90
2023-10-29T21:40:50.552Z,99.90
2023-10-29T21:43:18.491Z,99.90
2023-10-29T21:45:46.456Z,99.90
2023-10-29T21:48:14.498Z,99.90
2023-10-29T21:50:42.607Z,99.90
2023-10-29T21:53:10.316Z,99.90
2023-10-29T21:55:38.751Z,99.90
2023-10-29T21:58:11.105Z,99.90
2023-10-29T22:00:39.266Z,99.90
2023-10-29T22:03:07.355Z,99.90
2023-10-29T22:05:35.351Z,99.90
2023-10-29T22:08:03.350Z,99.90
2023-10-29T22:10:31.325Z,99.90
2023-10-29T22:12:59.283Z,99.90
2023-10-29T22:15:29.304Z,99.90
2023-10-29T22:17:57.649Z,99.90
2023-10-29T22:20:25.652Z,99.90
2023-10-29T22:22:53.627Z,99.90
2023-10-29T22:25:21.578Z,99.90
2023-10-29T22:27:49.533Z,99.90
2023-10-29T22:30:18.423Z,99.90
2023-10-29T22:32:47.801Z,99.90
2023-10-29T22:35:15.812Z,99.90
2023-10-29T22:37:43.765Z,99.90
2023-10-29T22:40:13.239Z,99.90
2023-10-29T22:42:41.218Z,99.90
2023-10-29T22:45:09.947Z,99.90
2023-10-29T22:47:38.011Z,99.90
2023-10-29T22:50:08.720Z,99.90
2023-10-29T22:52:36.675Z,99.90
2023-10-29T22:55:04.824Z,99.90
2023-10-29T22:57:32.973Z,99.90
2023-10-29T23:00:01.078Z,99.90
2023-10-29T23:02:29.058Z,99.90
2023-10-29T23:04:57.091Z,99.90
2023-10-29T23:07:26.432Z,99.90
2023-10-29T23:09:56.646Z,99.90
2023-10-29T23:12:24.573Z,99.90
2023-10-29T23:14:52.942Z,99.90
2023-10-29T23:17:20.897Z,99.90
2023-10-29T23:19:49.379Z,99.90
2023-10-29T23:22:17.501Z,99.90
2023-10-29T23:24:46.910Z,99.90
2023-10-29T23:27:14.863Z,99.90
2023-10-29T23:29:42.817Z,99.90
2023-10-29T23:32:10.802Z,99.90
2023-10-29T23:34:38.789Z,99.90
2023-10-29T23:37:06.706Z,99.90
2023-10-29T23:39:34.668Z,99.90
2023-10-29T23:42:04.252Z,99.90
2023-10-29T23:44:32.237Z,99.90
2023-10-29T23:47:00.146Z,99.90
2023-10-29T23:49:28.041Z,99.90
2023-10-29T23:51:56.037Z,99.90
2023-10-29T23:54:24.308Z,99.90
2023-10-29T23:56:52.264Z,99.90
2023-10-29T23:59:21.538Z,99.90
